createdAt,value
2017-07-29T00:00:27.889Z,83.85
2017-07-29T00:02:55.654Z,83.26
2017-07-29T00:05:23.594Z,83.04
2017-07-29T00:07:51.414Z,83.52
2017-07-29T00:10:19.231Z,82.70
2017-07-29T00:12:47.179Z,82.60
2017-07-29T00:15:15.019Z,82.23
2017-07-29T00:17:42.805Z,82.46
2017-07-29T00:20:10.662Z,82.70
2017-07-29T00:22:38.407Z,83.06
2017-07-29T00:25:06.312Z,83.08
2017-07-29T00:27:34.107Z,83.51
2017-07-29T00:30:01.935Z,83.32
2017-07-29T00:32:29.819Z,83.47
2017-07-29T00:34:57.608Z,83.34
2017-07-29T00:37:26.345Z,82.99
2017-07-29T00:39:54.169Z,83.61
2017-07-29T00:42:22.053Z,83.17
2017-07-29T00:44:50.928Z,83.10
2017-07-29T00:47:18.735Z,82.87
2017-07-29T00:49:46.605Z,83.26
2017-07-29T00:52:14.314Z,82.87
2017-07-29T00:54:42.427Z,82.98
2017-07-29T00:57:10.194Z,83.78
2017-07-29T00:59:38.016Z,83.20
2017-07-29T01:02:05.866Z,82.93
2017-07-29T01:04:33.667Z,83.34
2017-07-29T01:07:01.605Z,83.52
2017-07-29T01:09:30.477Z,83.53
2017-07-29T01:11:58.437Z,82.89
2017-07-29T01:14:26.241Z,82.98
2017-07-29T01:16:53.998Z,83.51
2017-07-29T01:19:21.922Z,83.43
2017-07-29T01:21:49.728Z,82.98
2017-07-29T01:24:17.524Z,83.47
2017-07-29T01:26:45.391Z,83.75
2017-07-29T01:29:13.184Z,83.87
2017-07-29T01:31:41.096Z,84.15
2017-07-29T01:34:08.919Z,83.71
2017-07-29T01:36:36.818Z,83.67
2017-07-29T01:39:04.819Z,83.96
2017-07-29T01:41:32.712Z,84.08
2017-07-29T01:44:00.503Z,84.18
2017-07-29T01:46:28.240Z,84.21
2017-07-29T01:48:56.170Z,84.51
2017-07-29T01:51:24.345Z,84.67
2017-07-29T01:53:52.248Z,85.40
2017-07-29T01:56:20.196Z,86.04
2017-07-29T01:58:48.025Z,86.39
2017-07-29T02:01:15.943Z,86.41
2017-07-29T02:03:43.808Z,85.47
2017-07-29T02:06:11.700Z,84.81
2017-07-29T02:08:39.592Z,84.49
2017-07-29T02:11:07.334Z,83.98
2017-07-29T02:13:35.170Z,84.22
2017-07-29T02:16:02.883Z,84.87
2017-07-29T02:18:30.728Z,84.52
2017-07-29T02:20:58.438Z,84.93
2017-07-29T02:23:26.269Z,84.77
2017-07-29T02:25:54.134Z,84.66
2017-07-29T02:28:22.039Z,85.12
2017-07-29T02:30:49.740Z,84.00
2017-07-29T02:33:17.470Z,84.01
2017-07-29T02:35:45.449Z,84.69
2017-07-29T02:38:13.298Z,84.94
2017-07-29T02:40:41.003Z,84.96
2017-07-29T02:43:08.887Z,84.61
2017-07-29T02:45:36.772Z,84.61
2017-07-29T02:48:04.706Z,84.90
2017-07-29T02:50:32.503Z,84.49
2017-07-29T02:53:00.322Z,84.87
2017-07-29T02:55:28.102Z,85.13
2017-07-29T02:57:55.952Z,85.67
2017-07-29T03:00:23.860Z,85.25
2017-07-29T03:02:51.747Z,85.04
2017-07-29T03:05:19.569Z,85.53
2017-07-29T03:07:47.468Z,85.27
2017-07-29T03:10:15.394Z,85.17
2017-07-29T03:12:43.161Z,85.30
2017-07-29T03:15:10.964Z,85.32
2017-07-29T03:17:38.769Z,85.21
2017-07-29T03:20:06.638Z,85.32
2017-07-29T03:22:34.419Z,86.00
2017-07-29T03:25:02.201Z,85.79
2017-07-29T03:27:30.103Z,86.31
2017-07-29T03:29:58.052Z,85.94
2017-07-29T03:32:25.918Z,85.60
2017-07-29T03:34:53.772Z,85.85
2017-07-29T03:37:21.551Z,85.61
2017-07-29T03:39:49.263Z,85.78
2017-07-29T03:42:17.146Z,86.13
2017-07-29T03:44:44.922Z,86.30
2017-07-29T03:47:12.948Z,86.85
2017-07-29T03:49:41.176Z,86.59
2017-07-29T03:52:08.916Z,86.22
2017-07-29T03:54:36.737Z,85.88
2017-07-29T03:57:04.595Z,85.85
2017-07-29T03:59:32.461Z,86.37
2017-07-29T04:02:00.264Z,86.54
2017-07-29T04:04:28.093Z,86.67
2017-07-29T04:06:56.054Z,87.05
2017-07-29T04:09:23.923Z,87.52
2017-07-29T04:11:51.660Z,87.53
2017-07-29T04:14:19.482Z,87.11
2017-07-29T04:16:47.375Z,88.16
2017-07-29T04:19:15.102Z,87.46
2017-07-29T04:21:42.888Z,86.90
2017-07-29T04:24:10.784Z,87.49
2017-07-29T04:26:38.591Z,88.14
2017-07-29T04:29:06.357Z,88.43
2017-07-29T04:31:34.225Z,87.63
2017-07-29T04:34:01.966Z,87.99
2017-07-29T04:36:29.876Z,87.66
2017-07-29T04:38:57.737Z,88.28
2017-07-29T04:41:25.615Z,87.94
2017-07-29T04:43:53.453Z,88.04
2017-07-29T04:46:21.253Z,88.19
2017-07-29T04:48:49.063Z,87.48
2017-07-29T04:51:17.077Z,86.87
2017-07-29T04:53:44.938Z,86.70
2017-07-29T04:56:12.800Z,86.85
2017-07-29T04:58:40.772Z,86.60
2017-07-29T05:01:08.602Z,86.77
2017-07-29T05:03:36.343Z,87.15
2017-07-29T05:06:04.270Z,87.34
2017-07-29T05:08:32.164Z,87.83
2017-07-29T05:10:59.878Z,88.22
2017-07-29T05:13:27.708Z,87.75
2017-07-29T05:15:55.433Z,88.08
2017-07-29T05:18:23.405Z,88.33
2017-07-29T05:20:51.107Z,89.36
2017-07-29T05:23:18.934Z,89.90
2017-07-29T05:25:46.809Z,89.24
2017-07-29T05:28:14.741Z,89.45
2017-07-29T05:30:42.476Z,89.25
2017-07-29T05:33:10.338Z,88.58
2017-07-29T05:35:38.293Z,88.61
2017-07-29T05:38:06.791Z,88.84
2017-07-29T05:40:34.720Z,88.27
2017-07-29T05:43:02.408Z,89.30
2017-07-29T05:45:30.339Z,89.40
2017-07-29T05:47:58.306Z,88.39
2017-07-29T05:50:26.112Z,86.72
2017-07-29T05:52:53.934Z,86.01
2017-07-29T05:55:21.735Z,85.14
2017-07-29T05:57:49.603Z,84.74
2017-07-29T06:00:17.483Z,85.18
2017-07-29T06:02:45.318Z,82.56
2017-07-29T06:05:13.184Z,81.41
2017-07-29T06:07:40.994Z,81.66
2017-07-29T06:10:08.698Z,81.60
2017-07-29T06:12:36.639Z,81.50
2017-07-29T06:15:04.422Z,82.71
2017-07-29T06:17:33.044Z,82.26
2017-07-29T06:20:00.827Z,82.81
2017-07-29T06:22:28.604Z,82.38
2017-07-29T06:24:56.376Z,80.27
2017-07-29T06:27:24.193Z,80.37
2017-07-29T06:29:52.871Z,79.52
2017-07-29T06:32:20.694Z,77.16
2017-07-29T06:34:49.039Z,77.60
2017-07-29T06:37:16.981Z,73.46
2017-07-29T06:39:45.876Z,74.45
2017-07-29T06:42:13.801Z,73.50
2017-07-29T06:44:46.357Z,72.38
2017-07-29T06:47:14.314Z,72.30
2017-07-29T06:49:42.195Z,71.62
2017-07-29T06:52:10.285Z,69.91
2017-07-29T06:54:38.923Z,70.21
2017-07-29T06:57:07.801Z,68.15
2017-07-29T06:59:36.419Z,71.39
2017-07-29T07:02:05.237Z,71.13
2017-07-29T07:04:33.117Z,70.01
2017-07-29T07:07:01.025Z,71.50
2017-07-29T07:09:29.035Z,70.05
2017-07-29T07:11:56.756Z,69.88
2017-07-29T07:14:24.538Z,67.44
2017-07-29T07:16:52.376Z,67.16
2017-07-29T07:19:21.123Z,64.62
2017-07-29T07:21:48.888Z,63.89
2017-07-29T07:24:16.693Z,62.24
2017-07-29T07:26:44.388Z,60.28
2017-07-29T07:29:12.200Z,63.26
2017-07-29T07:31:39.931Z,63.70
2017-07-29T07:34:07.714Z,65.11
2017-07-29T07:36:35.638Z,63.59
2017-07-29T07:39:03.475Z,63.49
2017-07-29T07:41:31.205Z,63.97
2017-07-29T07:43:59.065Z,64.42
2017-07-29T07:46:26.922Z,63.84
2017-07-29T07:48:54.645Z,65.04
2017-07-29T07:51:22.523Z,63.54
2017-07-29T07:53:50.620Z,65.87
2017-07-29T07:56:18.837Z,64.23
2017-07-29T07:58:46.549Z,63.43
2017-07-29T08:01:14.250Z,60.74
2017-07-29T08:03:42.021Z,61.74
2017-07-29T08:06:09.739Z,61.80
2017-07-29T08:08:37.504Z,62.25
2017-07-29T08:11:05.209Z,63.65
2017-07-29T08:13:32.962Z,63.13
2017-07-29T08:16:00.764Z,61.95
2017-07-29T08:18:28.472Z,61.49
2017-07-29T08:20:56.337Z,61.68
2017-07-29T08:23:24.078Z,60.60
2017-07-29T08:25:51.796Z,60.45
2017-07-29T08:28:19.547Z,62.48
2017-07-29T08:30:47.291Z,61.15
2017-07-29T08:33:15.114Z,59.87
2017-07-29T08:35:42.961Z,60.15
2017-07-29T08:38:10.958Z,59.08
2017-07-29T08:40:38.868Z,57.45
2017-07-29T08:43:06.671Z,57.75
2017-07-29T08:45:34.496Z,55.25
2017-07-29T08:48:02.183Z,55.03
2017-07-29T08:50:29.910Z,52.96
2017-07-29T08:52:57.660Z,54.15
2017-07-29T08:55:25.415Z,56.41
2017-07-29T08:57:53.216Z,55.21
2017-07-29T09:00:21.784Z,55.23
2017-07-29T09:02:49.499Z,56.18
2017-07-29T09:05:17.313Z,56.04
2017-07-29T09:07:45.109Z,55.00
2017-07-29T09:10:12.894Z,54.57
2017-07-29T09:12:41.577Z,53.92
2017-07-29T09:15:09.302Z,54.30
2017-07-29T09:17:37.143Z,54.59
2017-07-29T09:20:04.892Z,55.22
2017-07-29T09:22:32.642Z,54.45
2017-07-29T09:25:00.416Z,50.94
2017-07-29T09:27:28.181Z,54.91
2017-07-29T09:29:55.898Z,53.34
2017-07-29T09:32:23.668Z,50.04
2017-07-29T09:34:51.364Z,52.20
2017-07-29T09:37:19.140Z,52.47
2017-07-29T09:39:46.935Z,52.35
2017-07-29T09:42:14.711Z,53.21
2017-07-29T09:44:42.486Z,52.95
2017-07-29T09:47:10.385Z,54.06
2017-07-29T09:49:38.256Z,51.21
2017-07-29T09:52:05.993Z,51.10
2017-07-29T09:54:33.693Z,51.78
2017-07-29T09:57:01.585Z,50.00
2017-07-29T09:59:29.313Z,51.52
2017-07-29T10:01:57.044Z,49.90
2017-07-29T10:04:24.804Z,49.54
2017-07-29T10:06:52.575Z,50.22
2017-07-29T10:09:20.363Z,51.16
2017-07-29T10:11:48.089Z,50.59
2017-07-29T10:14:15.838Z,52.62
2017-07-29T10:16:43.672Z,53.71
2017-07-29T10:19:11.501Z,52.25
2017-07-29T10:21:39.267Z,53.08
2017-07-29T10:24:07.008Z,52.29
2017-07-29T10:26:34.779Z,52.13
2017-07-29T10:29:02.591Z,50.33
2017-07-29T10:31:30.380Z,52.29
2017-07-29T10:33:58.161Z,50.44
2017-07-29T10:36:25.913Z,52.87
2017-07-29T10:38:53.658Z,52.71
2017-07-29T10:41:21.461Z,49.64
2017-07-29T10:43:49.255Z,51.22
2017-07-29T10:46:16.971Z,50.73
2017-07-29T10:48:44.766Z,50.03
2017-07-29T10:51:12.478Z,51.22
2017-07-29T10:53:40.253Z,51.50
2017-07-29T10:56:08.069Z,50.32
2017-07-29T10:58:35.798Z,48.49
2017-07-29T11:01:03.501Z,49.65
2017-07-29T11:03:31.263Z,47.17
2017-07-29T11:05:59.032Z,47.40
2017-07-29T11:08:26.741Z,47.67
2017-07-29T11:10:54.536Z,48.74
2017-07-29T11:13:22.440Z,47.91
2017-07-29T11:15:50.253Z,45.95
2017-07-29T11:18:18.019Z,44.68
2017-07-29T11:20:45.754Z,43.71
2017-07-29T11:23:13.518Z,46.48
2017-07-29T11:25:41.331Z,41.14
2017-07-29T11:28:09.142Z,39.76
2017-07-29T11:30:36.859Z,38.72
2017-07-29T11:33:04.686Z,39.45
2017-07-29T11:35:32.440Z,42.27
2017-07-29T11:38:00.176Z,42.24
2017-07-29T11:40:27.919Z,41.52
2017-07-29T11:42:56.413Z,41.15
2017-07-29T11:45:24.304Z,41.31
2017-07-29T11:47:52.106Z,40.30
2017-07-29T11:50:19.868Z,42.14
2017-07-29T11:52:47.578Z,41.65
2017-07-29T11:55:15.296Z,41.79
2017-07-29T11:57:43.044Z,41.44
2017-07-29T12:00:10.849Z,41.25
2017-07-29T12:02:38.643Z,42.02
2017-07-29T12:05:06.568Z,41.47
2017-07-29T12:07:34.320Z,41.81
2017-07-29T12:10:02.018Z,42.58
2017-07-29T12:12:29.771Z,41.55
2017-07-29T12:14:57.503Z,39.85
2017-07-29T12:17:25.272Z,41.79
2017-07-29T12:19:52.977Z,42.12
2017-07-29T12:22:20.705Z,40.07
2017-07-29T12:24:48.449Z,41.25
2017-07-29T12:27:16.174Z,41.14
2017-07-29T12:29:43.926Z,37.52
2017-07-29T12:32:11.685Z,39.33
2017-07-29T12:34:39.523Z,41.27
2017-07-29T12:37:07.350Z,40.91
2017-07-29T12:39:36.221Z,42.64
2017-07-29T12:42:04.068Z,38.86
2017-07-29T12:44:32.710Z,40.05
2017-07-29T12:47:01.283Z,39.03
2017-07-29T12:49:29.020Z,40.84
2017-07-29T12:51:56.785Z,37.59
2017-07-29T12:54:24.477Z,38.97
2017-07-29T12:56:52.206Z,39.84
2017-07-29T12:59:20.012Z,40.14
2017-07-29T13:01:47.784Z,41.49
2017-07-29T13:04:15.531Z,41.60
2017-07-29T13:06:43.269Z,39.16
2017-07-29T13:09:10.986Z,39.09
2017-07-29T13:11:38.755Z,39.03
2017-07-29T13:14:06.501Z,39.88
2017-07-29T13:16:34.256Z,38.02
2017-07-29T13:19:03.191Z,39.21
2017-07-29T13:21:30.924Z,37.59
2017-07-29T13:23:58.684Z,39.15
2017-07-29T13:26:26.459Z,38.15
2017-07-29T13:28:54.187Z,37.71
2017-07-29T13:31:21.916Z,40.46
2017-07-29T13:33:49.725Z,37.47
2017-07-29T13:36:17.458Z,39.07
2017-07-29T13:38:45.262Z,38.07
2017-07-29T13:41:13.056Z,42.16
2017-07-29T13:43:40.831Z,44.97
2017-07-29T13:46:08.545Z,45.00
2017-07-29T13:48:36.328Z,42.17
2017-07-29T13:51:04.185Z,41.67
2017-07-29T13:53:31.900Z,44.64
2017-07-29T13:55:59.846Z,45.08
2017-07-29T13:58:27.741Z,44.23
2017-07-29T14:00:55.557Z,45.15
2017-07-29T14:03:23.489Z,47.85
2017-07-29T14:05:51.272Z,48.42
2017-07-29T14:08:19.030Z,44.63
2017-07-29T14:10:46.928Z,46.28
2017-07-29T14:13:14.643Z,44.46
2017-07-29T14:15:42.380Z,44.61
2017-07-29T14:18:10.394Z,46.32
2017-07-29T14:20:38.143Z,47.72
2017-07-29T14:23:05.882Z,44.97
2017-07-29T14:25:34.821Z,44.67
2017-07-29T14:28:02.555Z,38.10
2017-07-29T14:30:30.281Z,40.46
2017-07-29T14:32:58.063Z,43.13
2017-07-29T14:35:26.177Z,42.09
2017-07-29T14:37:53.881Z,41.12
2017-07-29T14:40:21.722Z,46.45
2017-07-29T14:42:49.493Z,48.46
2017-07-29T14:45:17.340Z,49.44
2017-07-29T14:47:45.294Z,50.08
2017-07-29T14:50:13.066Z,49.64
2017-07-29T14:52:40.902Z,48.49
2017-07-29T14:55:08.607Z,50.25
2017-07-29T14:57:36.465Z,47.49
2017-07-29T15:00:04.317Z,51.62
2017-07-29T15:02:32.158Z,52.15
2017-07-29T15:04:59.910Z,53.18
2017-07-29T15:07:27.694Z,51.00
2017-07-29T15:09:55.433Z,50.46
2017-07-29T15:12:23.256Z,51.61
2017-07-29T15:14:51.035Z,50.52
2017-07-29T15:17:18.836Z,49.54
2017-07-29T15:19:46.596Z,48.55
2017-07-29T15:22:14.313Z,48.55
2017-07-29T15:24:42.085Z,49.37
2017-07-29T15:27:09.909Z,49.68
2017-07-29T15:29:37.782Z,48.78
2017-07-29T15:32:05.558Z,49.11
2017-07-29T15:34:33.395Z,48.80
2017-07-29T15:37:01.155Z,48.55
2017-07-29T15:39:28.954Z,47.89
2017-07-29T15:41:59.566Z,49.94
2017-07-29T15:44:27.618Z,52.37
2017-07-29T15:46:55.344Z,55.84
2017-07-29T15:49:23.114Z,57.42
2017-07-29T15:51:50.894Z,51.56
2017-07-29T15:54:18.638Z,53.94
2017-07-29T15:56:46.411Z,53.38
2017-07-29T15:59:14.165Z,56.67
2017-07-29T16:01:41.992Z,57.85
2017-07-29T16:04:09.796Z,57.54
2017-07-29T16:06:37.561Z,57.44
2017-07-29T16:09:05.434Z,57.71
2017-07-29T16:11:33.411Z,58.80
2017-07-29T16:14:01.271Z,59.47
2017-07-29T16:16:29.264Z,60.11
2017-07-29T16:18:57.078Z,59.96
2017-07-29T16:21:25.001Z,58.67
2017-07-29T16:23:52.772Z,57.17
2017-07-29T16:26:20.527Z,57.45
2017-07-29T16:28:48.308Z,56.58
2017-07-29T16:31:16.313Z,61.27
2017-07-29T16:33:44.179Z,59.46
2017-07-29T16:36:12.060Z,57.85
2017-07-29T16:38:41.253Z,56.83
2017-07-29T16:41:09.605Z,55.79
2017-07-29T16:43:37.414Z,54.56
2017-07-29T16:46:05.232Z,54.31
2017-07-29T16:48:32.994Z,54.26
2017-07-29T16:51:00.768Z,55.65
2017-07-29T16:53:28.628Z,56.45
2017-07-29T16:55:56.711Z,57.98
2017-07-29T16:58:24.523Z,56.86
2017-07-29T17:00:52.394Z,58.40
2017-07-29T17:03:20.935Z,59.72
2017-07-29T17:05:48.758Z,61.13
2017-07-29T17:08:16.621Z,62.13
2017-07-29T17:10:44.520Z,61.97
2017-07-29T17:13:12.319Z,62.11
2017-07-29T17:15:40.061Z,62.03
2017-07-29T17:18:07.947Z,61.65
2017-07-29T17:20:35.711Z,61.82
2017-07-29T17:23:03.634Z,61.94
2017-07-29T17:25:32.196Z,62.56
2017-07-29T17:28:00.927Z,63.98
2017-07-29T17:30:28.987Z,63.91
2017-07-29T17:32:56.699Z,63.69
2017-07-29T17:35:24.522Z,63.70
2017-07-29T17:37:52.241Z,63.29
2017-07-29T17:40:20.169Z,63.46
2017-07-29T17:42:47.868Z,63.58
2017-07-29T17:45:15.566Z,64.41
2017-07-29T17:47:43.394Z,64.55
2017-07-29T17:50:11.195Z,64.65
2017-07-29T17:52:39.130Z,64.39
2017-07-29T17:55:07.058Z,64.13
2017-07-29T17:57:34.785Z,64.31
2017-07-29T18:00:02.598Z,64.03
2017-07-29T18:02:30.346Z,65.27
2017-07-29T18:04:58.364Z,66.14
2017-07-29T18:07:26.610Z,64.92
2017-07-29T18:09:54.384Z,65.53
2017-07-29T18:12:22.179Z,66.97
2017-07-29T18:14:50.221Z,66.78
2017-07-29T18:17:18.129Z,66.62
2017-07-29T18:19:45.940Z,67.35
2017-07-29T18:22:13.661Z,67.48
2017-07-29T18:24:41.711Z,67.74
2017-07-29T18:27:10.324Z,68.21
2017-07-29T18:29:38.400Z,68.12
2017-07-29T18:32:06.410Z,69.13
2017-07-29T18:34:34.783Z,69.23
2017-07-29T18:37:02.724Z,69.81
2017-07-29T18:39:30.916Z,69.65
2017-07-29T18:41:58.797Z,70.30
2017-07-29T18:44:26.568Z,70.39
2017-07-29T18:46:54.411Z,69.99
2017-07-29T18:49:23.120Z,69.20
2017-07-29T18:51:50.895Z,68.83
2017-07-29T18:54:18.661Z,68.98
2017-07-29T18:56:46.509Z,69.37
2017-07-29T18:59:14.714Z,69.98
2017-07-29T19:01:42.457Z,70.09
2017-07-29T19:04:10.261Z,70.87
2017-07-29T19:06:38.038Z,70.68
2017-07-29T19:09:06.110Z,70.37
2017-07-29T19:11:33.995Z,71.12
2017-07-29T19:14:03.262Z,70.09
2017-07-29T19:16:31.010Z,69.88
2017-07-29T19:18:58.742Z,71.43
2017-07-29T19:21:26.540Z,72.52
2017-07-29T19:23:54.278Z,72.61
2017-07-29T19:26:22.050Z,72.52
2017-07-29T19:28:49.844Z,73.29
2017-07-29T19:31:17.702Z,72.62
2017-07-29T19:33:46.409Z,73.21
2017-07-29T19:36:14.231Z,72.39
2017-07-29T19:38:42.094Z,72.72
2017-07-29T19:41:10.570Z,72.62
2017-07-29T19:43:38.741Z,71.78
2017-07-29T19:46:06.496Z,72.13
2017-07-29T19:48:34.300Z,72.67
2017-07-29T19:51:02.576Z,73.41
2017-07-29T19:53:30.367Z,73.40
2017-07-29T19:55:58.164Z,73.17
2017-07-29T19:58:26.406Z,73.55
2017-07-29T20:00:54.102Z,74.75
2017-07-29T20:03:21.887Z,74.65
2017-07-29T20:05:49.761Z,75.18
2017-07-29T20:08:17.445Z,74.98
2017-07-29T20:10:45.242Z,73.97
2017-07-29T20:13:12.986Z,74.09
2017-07-29T20:15:40.784Z,74.40
2017-07-29T20:18:08.492Z,74.96
2017-07-29T20:20:36.484Z,74.81
2017-07-29T20:23:04.266Z,75.33
2017-07-29T20:25:32.008Z,75.19
2017-07-29T20:27:59.853Z,75.04
2017-07-29T20:30:27.620Z,75.02
2017-07-29T20:32:55.430Z,75.09
2017-07-29T20:35:23.136Z,75.18
2017-07-29T20:37:51.016Z,75.18
2017-07-29T20:40:18.731Z,74.75
2017-07-29T20:42:46.514Z,74.52
2017-07-29T20:45:14.317Z,74.77
2017-07-29T20:47:42.372Z,75.09
2017-07-29T20:50:10.155Z,74.74
2017-07-29T20:52:38.003Z,75.33
2017-07-29T20:55:05.793Z,75.62
2017-07-29T20:57:33.675Z,76.03
2017-07-29T21:00:01.450Z,76.70
2017-07-29T21:02:29.152Z,77.13
2017-07-29T21:04:56.914Z,76.73
2017-07-29T21:07:24.696Z,76.01
2017-07-29T21:09:52.419Z,76.75
2017-07-29T21:12:20.134Z,77.56
2017-07-29T21:14:47.928Z,77.21
2017-07-29T21:17:15.703Z,77.10
2017-07-29T21:19:43.569Z,77.25
2017-07-29T21:22:11.363Z,77.76
2017-07-29T21:24:39.075Z,77.81
2017-07-29T21:27:06.799Z,77.70
2017-07-29T21:29:34.623Z,77.81
2017-07-29T21:32:02.752Z,78.75
2017-07-29T21:34:31.708Z,78.08
2017-07-29T21:36:59.461Z,78.45
2017-07-29T21:39:27.183Z,78.17
2017-07-29T21:41:55.039Z,77.57
2017-07-29T21:44:23.110Z,77.84
2017-07-29T21:46:50.825Z,78.16
2017-07-29T21:49:18.840Z,78.41
2017-07-29T21:51:47.194Z,79.11
2017-07-29T21:54:14.912Z,79.56
2017-07-29T21:56:42.691Z,79.46
2017-07-29T21:59:10.438Z,79.46
2017-07-29T22:01:38.237Z,79.02
2017-07-29T22:04:06.281Z,78.86
2017-07-29T22:06:34.012Z,79.20
2017-07-29T22:09:01.745Z,79.52
2017-07-29T22:11:29.569Z,79.61
2017-07-29T22:13:57.325Z,78.76
2017-07-29T22:16:25.050Z,79.28
2017-07-29T22:18:52.749Z,79.55
2017-07-29T22:21:20.496Z,80.00
2017-07-29T22:23:49.210Z,79.88
2017-07-29T22:26:17.055Z,80.78
2017-07-29T22:28:44.766Z,80.09
2017-07-29T22:31:12.458Z,79.69
2017-07-29T22:33:40.219Z,79.86
2017-07-29T22:36:08.022Z,79.72
2017-07-29T22:38:35.787Z,80.60
2017-07-29T22:41:03.580Z,80.01
2017-07-29T22:43:31.324Z,80.30
2017-07-29T22:45:59.072Z,79.76
2017-07-29T22:48:26.775Z,79.81
2017-07-29T22:50:54.790Z,80.38
2017-07-29T22:53:22.586Z,81.44
2017-07-29T22:55:51.525Z,81.29
2017-07-29T22:58:19.236Z,80.83
2017-07-29T23:00:46.925Z,80.51
2017-07-29T23:03:14.676Z,80.59
2017-07-29T23:05:42.365Z,80.48
2017-07-29T23:08:10.126Z,81.00
2017-07-29T23:10:37.864Z,81.87
2017-07-29T23:13:05.624Z,82.30
2017-07-29T23:15:33.452Z,82.68
2017-07-29T23:18:01.212Z,82.02
2017-07-29T23:20:28.972Z,81.41
2017-07-29T23:22:56.750Z,81.34
2017-07-29T23:25:24.543Z,81.27
2017-07-29T23:27:52.579Z,81.68
2017-07-29T23:30:20.431Z,82.27
2017-07-29T23:32:48.217Z,81.43
2017-07-29T23:35:15.935Z,81.25
2017-07-29T23:37:43.687Z,81.87
2017-07-29T23:40:11.522Z,82.06
2017-07-29T23:42:39.333Z,81.68
2017-07-29T23:45:07.133Z,82.76
2017-07-29T23:47:34.967Z,82.58
2017-07-29T23:50:03.270Z,82.25
2017-07-29T23:52:31.179Z,82.38
2017-07-29T23:54:59.270Z,82.16
2017-07-29T23:57:26.952Z,82.52
2017-07-29T23:59:54.997Z,82.91
